Time;durP1;ratioP1;P1;durP2;ratioP2;P2;SDS_P1;SDS_P2;PMS_P1;PMS_P2;Temp;Humidity;BMP_temperature;BMP_pressure;BME280_temperature;BME280_humidity;BME280_pressure;Samples;Min_cycle;Max_cycle;Signal;HPM_P1;HPM_P2
2022/08/21 00:02:15;;;;;;;9.70;2.80;;;;;;;;;;5060795;28;20286;-72
2022/08/21 00:04:42;;;;;;;7.90;2.87;;;;;;;;;;5058323;28;20252;-72
2022/08/21 00:07:09;;;;;;;11.97;3.00;;;;;;;;;;5055921;28;20239;-72
2022/08/21 00:09:36;;;;;;;12.27;3.20;;;;;;;;;;5058596;28;20626;-72
2022/08/21 00:12:06;;;;;;;10.07;3.00;;;;;;;;;;5055771;28;20223;-72
2022/08/21 00:14:34;;;;;;;11.37;3.10;;;;;;;;;;5063177;28;20231;-73
2022/08/21 00:17:01;;;;;;;10.67;2.90;;;;;;;;;;5068360;28;20199;-73
2022/08/21 00:19:29;;;;;;;10.13;3.13;;;;;;;;;;5069558;28;20234;-76
2022/08/21 00:21:57;;;;;;;9.43;3.03;;;;;;;;;;5057996;28;20665;-76
2022/08/21 00:24:25;;;;;;;12.37;3.00;;;;;;;;;;5067651;28;20678;-76
2022/08/21 00:26:52;;;;;;;10.97;2.83;;;;;;;;;;5068075;28;20611;-76
2022/08/21 00:29:21;;;;;;;11.57;3.23;;;;;;;;;;5055026;28;20208;-72
2022/08/21 00:31:48;;;;;;;14.77;3.10;;;;;;;;;;5059795;28;20313;-76
2022/08/21 00:34:17;;;;;;;7.80;2.60;;;;;;;;;;5057065;28;20239;-77
2022/08/21 00:36:45;;;;;;;14.30;3.00;;;;;;;;;;5067005;28;20206;-76
2022/08/21 00:39:12;;;;;;;19.13;3.93;;;;;;;;;;5057364;28;20212;-76
2022/08/21 00:41:40;;;;;;;11.80;2.90;;;;;;;;;;5062700;28;20234;-76
2022/08/21 00:44:09;;;;;;;8.87;2.90;;;;;;;;;;5062640;28;20198;-76
2022/08/21 00:46:38;;;;;;;14.53;3.00;;;;;;;;;;5071110;28;20262;-76
2022/08/21 00:49:07;;;;;;;7.63;2.60;;;;;;;;;;5064442;28;20294;-76
2022/08/21 00:51:36;;;;;;;13.93;3.63;;;;;;;;;;5067026;28;20257;-76
2022/08/21 00:54:04;;;;;;;11.30;2.60;;;;;;;;;;5057077;28;20238;-76
2022/08/21 00:56:32;;;;;;;12.27;3.20;;;;;;;;;;5070371;28;20203;-76
2022/08/21 00:59:00;;;;;;;9.57;2.90;;;;;;;;;;5065647;28;20247;-76
2022/08/21 01:01:27;;;;;;;14.20;3.57;;;;;;;;;;5062322;28;20206;-76
2022/08/21 01:03:56;;;;;;;12.00;3.23;;;;;;;;;;5055262;28;20196;-76
2022/08/21 01:06:23;;;;;;;11.33;2.90;;;;;;;;;;5062528;28;20285;-76
2022/08/21 01:08:50;;;;;;;10.50;3.53;;;;;;;;;;5050749;28;20254;-76
2022/08/21 01:11:18;;;;;;;10.00;3.40;;;;;;;;;;5065610;28;20238;-76
2022/08/21 01:13:45;;;;;;;7.83;2.90;;;;;;;;;;5061262;28;20302;-76
2022/08/21 01:16:15;;;;;;;9.97;2.93;;;;;;;;;;5064930;28;21054;-76
2022/08/21 01:18:42;;;;;;;12.80;2.57;;;;;;;;;;5061387;28;20258;-76
2022/08/21 01:21:13;;;;;;;11.77;3.20;;;;;;;;;;5062384;28;20235;-76
2022/08/21 01:23:41;;;;;;;10.43;3.13;;;;;;;;;;5063092;28;20200;-76
2022/08/21 01:26:09;;;;;;;11.07;3.00;;;;;;;;;;5060118;28;20239;-76
2022/08/21 01:28:40;;;;;;;11.83;3.40;;;;;;;;;;5066234;28;20199;-76
2022/08/21 01:31:08;;;;;;;12.10;3.57;;;;;;;;;;5055773;28;20203;-76
2022/08/21 01:33:36;;;;;;;12.60;3.40;;;;;;;;;;5059957;28;20247;-76
2022/08/21 01:36:03;;;;;;;11.00;3.17;;;;;;;;;;5063764;28;20274;-76
2022/08/21 01:38:32;;;;;;;12.23;3.73;;;;;;;;;;5060335;28;20227;-76
2022/08/21 01:40:59;;;;;;;10.33;3.07;;;;;;;;;;5064939;28;20278;-76
2022/08/21 01:43:26;;;;;;;9.47;3.10;;;;;;;;;;5061628;28;20206;-76
2022/08/21 01:45:53;;;;;;;11.60;2.67;;;;;;;;;;5052342;28;20249;-76
2022/08/21 01:48:21;;;;;;;10.50;3.40;;;;;;;;;;5057162;28;20340;-76
2022/08/21 01:50:48;;;;;;;11.67;3.10;;;;;;;;;;5052765;28;20586;-76
2022/08/21 01:53:15;;;;;;;13.03;3.63;;;;;;;;;;5049068;28;20277;-76
2022/08/21 01:55:44;;;;;;;12.20;3.73;;;;;;;;;;5052589;28;20203;-76
2022/08/21 01:58:11;;;;;;;107.50;98.10;;;;;;;;;;5052901;28;20276;-76
2022/08/21 02:00:39;;;;;;;14.73;3.70;;;;;;;;;;5062088;28;20294;-76
2022/08/21 02:03:06;;;;;;;11.70;3.33;;;;;;;;;;5061067;28;20281;-76
2022/08/21 02:05:33;;;;;;;7.87;3.20;;;;;;;;;;5064064;28;20226;-76
2022/08/21 02:08:01;;;;;;;10.07;3.60;;;;;;;;;;5058871;28;20230;-76
2022/08/21 02:10:29;;;;;;;10.73;3.30;;;;;;;;;;5058194;28;20718;-76
2022/08/21 02:12:59;;;;;;;13.27;3.37;;;;;;;;;;5059116;28;20255;-76
2022/08/21 02:15:27;;;;;;;10.57;3.40;;;;;;;;;;5059856;28;20209;-76
2022/08/21 02:17:55;;;;;;;11.17;3.10;;;;;;;;;;5068540;28;20293;-76
2022/08/21 02:20:23;;;;;;;8.97;3.37;;;;;;;;;;5066400;28;20294;-76
2022/08/21 02:22:50;;;;;;;11.90;3.50;;;;;;;;;;5050852;28;20222;-76
2022/08/21 02:25:18;;;;;;;10.73;3.23;;;;;;;;;;5056077;28;20683;-76
2022/08/21 02:27:47;;;;;;;10.10;3.40;;;;;;;;;;5064062;28;20231;-76
2022/08/21 02:30:16;;;;;;;11.90;3.30;;;;;;;;;;5058639;28;20204;-77
2022/08/21 02:32:43;;;;;;;9.70;3.27;;;;;;;;;;5053154;28;20777;-76
2022/08/21 02:35:11;;;;;;;12.10;3.47;;;;;;;;;;5061529;28;20234;-76
2022/08/21 02:37:44;;;;;;;12.37;3.33;;;;;;;;;;5065747;28;20228;-76
2022/08/21 02:40:12;;;;;;;9.47;3.30;;;;;;;;;;5063678;28;20199;-76
2022/08/21 02:42:40;;;;;;;7.90;3.07;;;;;;;;;;5064503;28;20224;-76
2022/08/21 02:45:08;;;;;;;9.23;3.30;;;;;;;;;;5046335;28;20203;-76
2022/08/21 02:47:37;;;;;;;13.03;3.33;;;;;;;;;;5064506;28;20307;-76
2022/08/21 02:50:04;;;;;;;6.27;3.00;;;;;;;;;;5059714;28;20288;-76
2022/08/21 02:52:33;;;;;;;9.87;3.20;;;;;;;;;;5053922;28;22096;-76
2022/08/21 02:55:00;;;;;;;11.30;3.23;;;;;;;;;;5056140;28;20282;-77
2022/08/21 02:57:27;;;;;;;11.53;3.50;;;;;;;;;;5066238;28;20227;-76
2022/08/21 02:59:54;;;;;;;9.20;3.50;;;;;;;;;;5051548;28;20652;-76
2022/08/21 03:02:22;;;;;;;10.50;3.10;;;;;;;;;;5050538;28;20246;-76
2022/08/21 03:04:50;;;;;;;10.57;3.57;;;;;;;;;;5059567;28;20198;-76
2022/08/21 03:07:18;;;;;;;8.27;3.40;;;;;;;;;;5063633;28;20202;-76
2022/08/21 03:09:45;;;;;;;15.37;3.73;;;;;;;;;;5062290;28;20235;-76
2022/08/21 03:12:12;;;;;;;10.30;3.60;;;;;;;;;;5055275;28;20283;-76
2022/08/21 03:14:40;;;;;;;9.13;3.40;;;;;;;;;;5055194;28;20322;-76
2022/08/21 03:17:07;;;;;;;9.43;3.70;;;;;;;;;;5054268;28;20253;-77
2022/08/21 03:19:34;;;;;;;8.87;3.20;;;;;;;;;;5053927;28;20289;-76
2022/08/21 03:22:03;;;;;;;8.80;2.90;;;;;;;;;;5066860;28;20670;-76
2022/08/21 03:24:30;;;;;;;11.07;3.00;;;;;;;;;;5061217;28;20691;-76
2022/08/21 03:26:57;;;;;;;11.80;3.67;;;;;;;;;;5057872;28;20196;-77
2022/08/21 03:29:25;;;;;;;10.00;3.23;;;;;;;;;;5058558;28;20199;-77
2022/08/21 03:31:53;;;;;;;9.33;3.10;;;;;;;;;;5066289;28;20238;-76
2022/08/21 03:34:21;;;;;;;15.60;3.27;;;;;;;;;;5064773;28;20305;-76
2022/08/21 03:36:48;;;;;;;12.33;3.10;;;;;;;;;;5064568;28;20203;-76
2022/08/21 03:39:17;;;;;;;9.10;3.10;;;;;;;;;;5056561;28;20297;-76
2022/08/21 03:41:45;;;;;;;8.60;3.13;;;;;;;;;;5065525;28;20226;-72
2022/08/21 03:44:12;;;;;;;9.87;3.20;;;;;;;;;;5058494;28;20268;-72
2022/08/21 03:46:39;;;;;;;9.33;3.17;;;;;;;;;;5060879;28;20334;-72
2022/08/21 03:49:07;;;;;;;10.30;3.23;;;;;;;;;;5062388;28;20257;-73
2022/08/21 03:51:35;;;;;;;8.13;2.97;;;;;;;;;;5064342;28;20288;-72
2022/08/21 03:54:02;;;;;;;11.30;3.03;;;;;;;;;;5067499;28;20241;-73
2022/08/21 03:56:31;;;;;;;10.40;3.43;;;;;;;;;;5061755;28;20237;-72
2022/08/21 03:58:59;;;;;;;8.50;3.10;;;;;;;;;;5068377;28;20230;-72
2022/08/21 04:01:26;;;;;;;8.23;3.50;;;;;;;;;;5050613;28;20239;-73
2022/08/21 04:03:53;;;;;;;13.00;3.13;;;;;;;;;;5067680;28;20234;-72
2022/08/21 04:06:21;;;;;;;11.47;3.20;;;;;;;;;;5065475;28;20299;-73
2022/08/21 04:08:48;;;;;;;15.83;3.73;;;;;;;;;;5053961;28;20239;-73
2022/08/21 04:11:15;;;;;;;10.23;3.10;;;;;;;;;;5053985;28;20218;-72
2022/08/21 04:13:46;;;;;;;13.93;3.27;;;;;;;;;;5066590;28;20226;-72
2022/08/21 04:16:14;;;;;;;12.43;3.50;;;;;;;;;;5052990;28;20287;-72
2022/08/21 04:18:41;;;;;;;10.17;3.23;;;;;;;;;;5064267;28;20524;-72
2022/08/21 04:21:10;;;;;;;9.83;3.47;;;;;;;;;;5065168;28;20589;-73
2022/08/21 04:23:38;;;;;;;10.07;3.13;;;;;;;;;;5055073;28;20212;-72
2022/08/21 04:26:06;;;;;;;10.37;3.30;;;;;;;;;;5057856;28;20628;-73
2022/08/21 04:28:33;;;;;;;11.67;3.23;;;;;;;;;;5052528;28;20311;-73
2022/08/21 04:31:02;;;;;;;11.40;3.70;;;;;;;;;;5055694;28;20245;-73
2022/08/21 04:33:29;;;;;;;9.03;3.10;;;;;;;;;;5066883;28;20237;-72
2022/08/21 04:35:56;;;;;;;8.40;3.10;;;;;;;;;;5061526;28;20287;-72
2022/08/21 04:38:24;;;;;;;10.40;3.30;;;;;;;;;;5062732;28;20243;-72
2022/08/21 04:40:51;;;;;;;11.33;3.57;;;;;;;;;;5068704;28;20202;-72
2022/08/21 04:43:19;;;;;;;14.10;3.40;;;;;;;;;;5053090;28;20207;-73
2022/08/21 04:45:47;;;;;;;13.73;3.60;;;;;;;;;;5052960;28;20202;-72
2022/08/21 04:48:18;;;;;;;12.20;3.70;;;;;;;;;;5052172;28;20259;-72
2022/08/21 04:50:48;;;;;;;11.03;3.43;;;;;;;;;;5060295;28;20207;-73
2022/08/21 04:53:17;;;;;;;11.10;3.33;;;;;;;;;;5059125;28;20226;-72
2022/08/21 04:55:45;;;;;;;12.47;3.60;;;;;;;;;;5058919;28;20656;-72
2022/08/21 04:58:14;;;;;;;8.97;3.10;;;;;;;;;;5068627;28;20726;-73
2022/08/21 05:00:41;;;;;;;13.00;3.53;;;;;;;;;;5054898;28;20207;-72
2022/08/21 05:03:10;;;;;;;11.30;3.50;;;;;;;;;;5064229;28;20207;-72
2022/08/21 05:05:39;;;;;;;10.37;3.30;;;;;;;;;;5048421;28;20294;-72
2022/08/21 05:08:08;;;;;;;10.93;3.43;;;;;;;;;;5055803;28;20201;-72
2022/08/21 05:10:36;;;;;;;13.83;3.47;;;;;;;;;;5066840;28;20209;-72
2022/08/21 05:13:04;;;;;;;9.23;3.67;;;;;;;;;;5066030;28;20290;-72
2022/08/21 05:15:31;;;;;;;10.63;2.97;;;;;;;;;;5062360;28;20187;-73
2022/08/21 05:17:59;;;;;;;12.27;3.27;;;;;;;;;;5062673;28;20248;-73
2022/08/21 05:20:26;;;;;;;10.10;3.13;;;;;;;;;;5056774;28;20212;-73
2022/08/21 05:22:54;;;;;;;12.23;3.20;;;;;;;;;;5054084;28;20254;-72
2022/08/21 05:25:21;;;;;;;13.33;3.60;;;;;;;;;;5053656;28;20884;-72
2022/08/21 05:27:49;;;;;;;7.40;3.07;;;;;;;;;;5054222;28;20290;-72
2022/08/21 05:30:16;;;;;;;12.13;3.50;;;;;;;;;;5062310;28;20203;-72
2022/08/21 05:32:43;;;;;;;11.23;3.37;;;;;;;;;;5063839;28;20291;-71
2022/08/21 05:35:11;;;;;;;17.03;3.93;;;;;;;;;;5062402;28;20738;-72
2022/08/21 05:37:38;;;;;;;11.70;3.73;;;;;;;;;;5070845;28;20294;-71
2022/08/21 05:40:08;;;;;;;7.67;3.00;;;;;;;;;;5060456;28;20238;-73
2022/08/21 05:42:35;;;;;;;13.97;3.50;;;;;;;;;;5046582;28;20291;-72
2022/08/21 05:45:02;;;;;;;11.00;3.60;;;;;;;;;;5060390;28;20235;-72
2022/08/21 05:47:29;;;;;;;12.83;3.93;;;;;;;;;;5052662;28;20278;-72
2022/08/21 05:49:56;;;;;;;12.60;3.30;;;;;;;;;;5059315;28;20246;-72
2022/08/21 05:52:24;;;;;;;10.30;3.43;;;;;;;;;;5052619;28;20204;-72
2022/08/21 05:54:53;;;;;;;11.87;3.50;;;;;;;;;;5052631;28;20313;-76
2022/08/21 05:57:22;;;;;;;8.60;3.20;;;;;;;;;;5059916;28;20218;-76
2022/08/21 05:59:49;;;;;;;11.80;2.90;;;;;;;;;;5061327;28;20209;-76
2022/08/21 06:02:18;;;;;;;10.87;3.23;;;;;;;;;;5056444;28;20203;-76
2022/08/21 06:04:45;;;;;;;10.67;3.30;;;;;;;;;;5061513;28;20200;-76
2022/08/21 06:07:12;;;;;;;11.40;3.50;;;;;;;;;;5053182;28;20691;-77
2022/08/21 06:09:40;;;;;;;11.47;3.50;;;;;;;;;;5055390;28;20202;-76
2022/08/21 06:12:08;;;;;;;9.43;3.30;;;;;;;;;;5060795;28;20199;-76
2022/08/21 06:14:37;;;;;;;10.30;3.37;;;;;;;;;;5061319;28;20223;-76
2022/08/21 06:17:05;;;;;;;15.70;3.33;;;;;;;;;;5062250;28;20200;-76
2022/08/21 06:19:32;;;;;;;10.77;3.53;;;;;;;;;;5065225;28;20238;-76
2022/08/21 06:22:00;;;;;;;8.30;3.47;;;;;;;;;;5055384;28;20243;-76
2022/08/21 06:24:27;;;;;;;10.30;3.17;;;;;;;;;;5057006;28;20690;-76
2022/08/21 06:26:54;;;;;;;9.20;3.83;;;;;;;;;;5058400;28;20236;-76
2022/08/21 06:29:22;;;;;;;7.67;3.83;;;;;;;;;;5058579;28;20272;-76
2022/08/21 06:31:51;;;;;;;9.87;3.63;;;;;;;;;;5050911;28;20733;-76
2022/08/21 06:34:21;;;;;;;12.90;3.70;;;;;;;;;;5059449;28;20265;-77
2022/08/21 06:36:48;;;;;;;11.20;3.57;;;;;;;;;;5051988;28;20195;-76
2022/08/21 06:39:15;;;;;;;10.20;4.20;;;;;;;;;;5060229;28;20204;-76
2022/08/21 06:41:42;;;;;;;11.33;4.43;;;;;;;;;;5051738;28;20246;-76
2022/08/21 06:44:10;;;;;;;10.63;3.73;;;;;;;;;;5050306;28;20296;-76
2022/08/21 06:46:37;;;;;;;13.70;3.90;;;;;;;;;;5051311;28;20318;-76
2022/08/21 06:49:07;;;;;;;11.93;3.93;;;;;;;;;;5051277;28;20257;-76
2022/08/21 06:51:34;;;;;;;12.20;3.27;;;;;;;;;;5067986;28;20229;-76
2022/08/21 06:54:01;;;;;;;11.43;3.50;;;;;;;;;;5064267;28;20233;-77
2022/08/21 06:56:28;;;;;;;11.37;3.63;;;;;;;;;;5056445;28;20246;-76
2022/08/21 06:58:56;;;;;;;11.13;3.63;;;;;;;;;;5052101;28;20288;-76
2022/08/21 07:01:24;;;;;;;11.37;3.07;;;;;;;;;;5064993;28;20264;-76
2022/08/21 07:03:52;;;;;;;9.47;3.50;;;;;;;;;;5065666;28;20238;-76
2022/08/21 07:06:21;;;;;;;11.03;3.43;;;;;;;;;;5055892;28;20250;-76
2022/08/21 07:08:48;;;;;;;9.73;3.30;;;;;;;;;;5059238;28;20214;-76
2022/08/21 07:11:18;;;;;;;11.23;3.43;;;;;;;;;;5060114;28;20235;-76
2022/08/21 07:13:45;;;;;;;10.43;3.03;;;;;;;;;;5056536;28;20246;-76
2022/08/21 07:16:13;;;;;;;8.30;2.80;;;;;;;;;;5056923;28;20714;-76
2022/08/21 07:18:40;;;;;;;9.20;2.80;;;;;;;;;;5058943;28;20251;-76
2022/08/21 07:21:08;;;;;;;10.87;3.47;;;;;;;;;;5062683;28;20254;-76
2022/08/21 07:23:39;;;;;;;12.57;3.73;;;;;;;;;;5067012;28;20684;-76
2022/08/21 07:26:07;;;;;;;10.07;3.40;;;;;;;;;;5056157;28;20238;-76
2022/08/21 07:28:35;;;;;;;11.87;3.60;;;;;;;;;;5067649;28;20211;-76
2022/08/21 07:31:02;;;;;;;10.63;3.10;;;;;;;;;;5055001;28;20235;-76
2022/08/21 07:33:31;;;;;;;14.87;3.17;;;;;;;;;;5057994;28;20671;-76
2022/08/21 07:35:58;;;;;;;10.93;3.57;;;;;;;;;;5064876;28;20253;-76
2022/08/21 07:38:28;;;;;;;8.60;3.03;;;;;;;;;;5050038;28;20294;-76
2022/08/21 07:40:58;;;;;;;11.70;3.10;;;;;;;;;;5062498;28;20199;-76
2022/08/21 07:43:26;;;;;;;11.55;3.28;;;;;;;;;;5057503;28;20212;-76
2022/08/21 07:45:54;;;;;;;9.43;3.00;;;;;;;;;;5061086;28;20224;-76
2022/08/21 07:48:21;;;;;;;8.20;2.70;;;;;;;;;;5059275;28;20208;-76
2022/08/21 07:50:49;;;;;;;15.02;3.03;;;;;;;;;;5057233;28;20203;-75
2022/08/21 07:53:16;;;;;;;8.38;2.72;;;;;;;;;;5047822;28;20199;-76
2022/08/21 07:55:44;;;;;;;11.38;2.33;;;;;;;;;;5056791;28;20311;-76
2022/08/21 07:58:12;;;;;;;8.73;2.80;;;;;;;;;;5070212;28;20268;-76
2022/08/21 08:00:40;;;;;;;7.05;2.60;;;;;;;;;;5052692;28;20264;-76
2022/08/21 08:03:08;;;;;;;10.32;2.95;;;;;;;;;;5054121;28;20242;-76
2022/08/21 08:05:37;;;;;;;8.93;2.72;;;;;;;;;;5055473;28;20261;-76
2022/08/21 08:08:04;;;;;;;9.45;2.88;;;;;;;;;;5047476;28;20211;-76
2022/08/21 08:10:32;;;;;;;8.45;2.50;;;;;;;;;;5055803;28;20631;-76
2022/08/21 08:12:59;;;;;;;11.02;2.90;;;;;;;;;;5053590;28;20203;-77
2022/08/21 08:15:28;;;;;;;12.52;2.67;;;;;;;;;;5052116;28;20314;-77
2022/08/21 08:17:56;;;;;;;8.60;2.78;;;;;;;;;;5062100;28;20318;-77
2022/08/21 08:20:24;;;;;;;9.30;2.50;;;;;;;;;;5054190;28;20699;-77
2022/08/21 08:22:52;;;;;;;8.27;2.55;;;;;;;;;;5065167;28;20203;-77
2022/08/21 08:25:20;;;;;;;8.50;2.60;;;;;;;;;;5056518;28;20233;-77
2022/08/21 08:27:47;;;;;;;7.43;2.53;;;;;;;;;;5054116;28;20238;-78
2022/08/21 08:30:15;;;;;;;9.45;2.58;;;;;;;;;;5054179;28;20211;-77
2022/08/21 08:32:44;;;;;;;10.18;2.78;;;;;;;;;;5059451;28;20242;-76
2022/08/21 08:35:12;;;;;;;10.75;2.60;;;;;;;;;;5064200;28;20265;-76
2022/08/21 08:37:39;;;;;;;12.30;2.70;;;;;;;;;;5066003;28;20286;-77
2022/08/21 08:40:07;;;;;;;11.30;2.35;;;;;;;;;;5057752;28;20290;-76
2022/08/21 08:42:36;;;;;;;7.85;1.98;;;;;;;;;;5064347;28;20211;-76
2022/08/21 08:45:06;;;;;;;11.98;2.65;;;;;;;;;;5067706;28;20218;-76
2022/08/21 08:47:34;;;;;;;8.05;2.08;;;;;;;;;;5058644;28;20230;-77
2022/08/21 08:50:05;;;;;;;9.52;2.15;;;;;;;;;;5063645;28;20206;-78
2022/08/21 08:52:34;;;;;;;11.70;2.35;;;;;;;;;;5060149;28;20646;-78
2022/08/21 08:55:04;;;;;;;10.57;2.55;;;;;;;;;;5063094;28;20273;-78
2022/08/21 08:57:31;;;;;;;9.10;2.00;;;;;;;;;;5069642;28;20306;-79
2022/08/21 09:00:00;;;;;;;10.48;2.03;;;;;;;;;;5058461;28;20196;-79
2022/08/21 09:02:28;;;;;;;7.50;2.17;;;;;;;;;;5060564;28;20715;-79
2022/08/21 09:04:56;;;;;;;6.75;2.00;;;;;;;;;;5056763;28;20223;-79
2022/08/21 09:07:30;;;;;;;10.90;2.42;;;;;;;;;;5072986;28;20230;-79
2022/08/21 09:10:03;;;;;;;7.00;2.15;;;;;;;;;;5057977;28;20738;-75
2022/08/21 09:12:34;;;;;;;65.97;7.22;;;;;;;;;;5054133;28;20203;-75
2022/08/21 09:15:07;;;;;;;10.60;2.17;;;;;;;;;;5052981;28;20307;-75
2022/08/21 09:17:42;;;;;;;6.93;1.90;;;;;;;;;;5064258;28;20207;-77
2022/08/21 09:20:20;;;;;;;5.70;1.70;;;;;;;;;;5056613;28;20742;-78
2022/08/21 09:22:54;;;;;;;6.47;1.45;;;;;;;;;;5066522;28;20290;-74
2022/08/21 09:25:23;;;;;;;9.55;1.63;;;;;;;;;;5068155;28;20234;-75
2022/08/21 09:27:51;;;;;;;9.07;1.80;;;;;;;;;;5054737;28;20703;-74
2022/08/21 09:30:19;;;;;;;17.48;11.63;;;;;;;;;;5063143;28;20294;-74
2022/08/21 09:32:46;;;;;;;639.22;573.90;;;;;;;;;;5058597;28;20234;-75
2022/08/21 09:35:15;;;;;;;95.03;84.18;;;;;;;;;;5051176;28;20250;-75
2022/08/21 09:37:52;;;;;;;578.20;515.42;;;;;;;;;;5061853;28;20390;-74
2022/08/21 09:40:21;;;;;;;253.30;210.20;;;;;;;;;;5053957;28;20636;-73
2022/08/21 09:42:55;;;;;;;46.63;41.53;;;;;;;;;;5058493;28;20303;-73
2022/08/21 09:45:22;;;;;;;24.40;20.38;;;;;;;;;;5055548;28;20766;-74
2022/08/21 09:47:50;;;;;;;66.40;60.35;;;;;;;;;;5050899;28;20304;-74
2022/08/21 09:50:18;;;;;;;11.55;5.32;;;;;;;;;;5055661;28;20265;-75
2022/08/21 09:52:47;;;;;;;208.05;183.32;;;;;;;;;;5059035;28;20229;-74
2022/08/21 09:58:07;;;;;;;5.90;3.15;;;;;;;;;;5060938;28;20229;-74
2022/08/21 10:00:35;;;;;;;7.22;2.30;;;;;;;;;;5059326;28;20196;-76
2022/08/21 10:03:10;;;;;;;4.53;1.40;;;;;;;;;;5058055;28;20238;-78
2022/08/21 10:05:38;;;;;;;4.50;1.83;;;;;;;;;;5060697;28;20225;-77
2022/08/21 10:08:06;;;;;;;4.90;2.10;;;;;;;;;;5053463;28;20227;-77
2022/08/21 10:10:38;;;;;;;6.43;3.20;;;;;;;;;;5056646;28;20926;-76
2022/08/21 10:13:08;;;;;;;4.57;1.77;;;;;;;;;;5059265;28;20203;-76
2022/08/21 10:15:40;;;;;;;4.90;1.70;;;;;;;;;;5061946;28;20228;-77
2022/08/21 10:18:10;;;;;;;4.80;1.38;;;;;;;;;;5053305;28;20227;-73
2022/08/21 10:20:42;;;;;;;4.47;1.40;;;;;;;;;;5059027;28;20742;-73
2022/08/21 10:23:16;;;;;;;3.78;1.63;;;;;;;;;;5061278;28;20196;-74
2022/08/21 10:25:47;;;;;;;59.88;53.58;;;;;;;;;;5056577;28;20234;-73
2022/08/21 10:28:19;;;;;;;5.50;2.45;;;;;;;;;;5062364;28;20281;-72
2022/08/21 10:30:53;;;;;;;2.03;1.08;;;;;;;;;;5061223;28;20206;-74
2022/08/21 10:33:29;;;;;;;3.90;1.20;;;;;;;;;;5056541;28;20218;-76
2022/08/21 10:36:01;;;;;;;6.07;1.85;;;;;;;;;;5054549;28;20277;-73
2022/08/21 10:38:40;;;;;;;4.90;1.40;;;;;;;;;;5068761;28;20199;-78
2022/08/21 10:41:15;;;;;;;3.20;1.00;;;;;;;;;;5058595;28;20207;-77
2022/08/21 10:43:47;;;;;;;3.40;1.55;;;;;;;;;;5054181;28;20237;-77
2022/08/21 10:46:19;;;;;;;2.38;1.02;;;;;;;;;;5066447;28;20616;-77
2022/08/21 10:48:49;;;;;;;5.78;1.70;;;;;;;;;;5067122;28;20239;-77
2022/08/21 10:51:19;;;;;;;3.70;1.45;;;;;;;;;;5060726;28;20200;-77
2022/08/21 10:53:52;;;;;;;4.28;1.73;;;;;;;;;;5063665;28;20234;-77
2022/08/21 10:56:24;;;;;;;6.03;1.50;;;;;;;;;;5059939;28;20223;-77
2022/08/21 10:58:58;;;;;;;5.20;1.33;;;;;;;;;;5062803;28;20225;-73
2022/08/21 11:01:28;;;;;;;4.38;1.52;;;;;;;;;;5051777;28;20314;-77
2022/08/21 11:04:01;;;;;;;3.28;1.42;;;;;;;;;;5053221;28;20195;-77
2022/08/21 11:06:30;;;;;;;4.25;1.15;;;;;;;;;;5059215;28;20223;-73
2022/08/21 11:09:00;;;;;;;4.47;1.30;;;;;;;;;;5064135;28;20203;-73
2022/08/21 11:11:31;;;;;;;4.63;2.15;;;;;;;;;;5050707;28;20199;-73
2022/08/21 11:14:00;;;;;;;5.60;1.70;;;;;;;;;;5060000;28;20691;-73
2022/08/21 11:16:31;;;;;;;4.63;1.25;;;;;;;;;;5057744;28;20254;-73
2022/08/21 11:19:01;;;;;;;3.60;1.38;;;;;;;;;;5062650;28;20245;-73
2022/08/21 11:21:33;;;;;;;6.50;4.10;;;;;;;;;;5037654;28;20207;-76
2022/08/21 11:24:04;;;;;;;5.75;2.17;;;;;;;;;;5062824;28;20254;-76
2022/08/21 11:26:36;;;;;;;7.55;6.70;;;;;;;;;;5064552;28;20559;-76
2022/08/21 11:29:06;;;;;;;5.45;1.52;;;;;;;;;;5053109;28;20765;-76
2022/08/21 11:31:39;;;;;;;3.05;1.00;;;;;;;;;;5058433;28;20234;-76
2022/08/21 11:34:14;;;;;;;1.42;0.90;;;;;;;;;;5055771;28;20206;-76
2022/08/21 11:36:44;;;;;;;4.18;1.10;;;;;;;;;;5060235;28;20210;-75
2022/08/21 11:39:18;;;;;;;3.33;1.15;;;;;;;;;;5073061;28;20268;-75
2022/08/21 11:41:54;;;;;;;5.45;1.23;;;;;;;;;;5068428;28;20230;-75
2022/08/21 11:44:26;;;;;;;3.17;0.93;;;;;;;;;;5061920;28;20380;-77
2022/08/21 11:46:59;;;;;;;2.72;1.10;;;;;;;;;;5070496;28;20310;-76
2022/08/21 11:49:34;;;;;;;3.20;1.20;;;;;;;;;;5054766;28;20691;-77
2022/08/21 11:52:09;;;;;;;3.42;1.30;;;;;;;;;;5060532;28;20203;-77
2022/08/21 11:54:38;;;;;;;3.58;1.00;;;;;;;;;;5068476;28;20583;-77
2022/08/21 11:57:14;;;;;;;3.83;1.30;;;;;;;;;;5060361;28;20310;-77
2022/08/21 11:59:43;;;;;;;3.90;1.10;;;;;;;;;;5048778;28;20291;-77
2022/08/21 12:02:13;;;;;;;4.15;1.23;;;;;;;;;;5062181;28;20502;-77
2022/08/21 12:04:44;;;;;;;3.40;1.00;;;;;;;;;;5059255;28;20238;-77
2022/08/21 12:07:12;;;;;;;4.30;1.23;;;;;;;;;;5056660;28;20238;-77
2022/08/21 12:09:52;;;;;;;6.43;1.25;;;;;;;;;;5073458;28;20234;-77
2022/08/21 12:12:26;;;;;;;3.25;0.93;;;;;;;;;;5057116;28;20258;-77
2022/08/21 12:15:05;;;;;;;2.65;1.35;;;;;;;;;;5069090;28;20290;-77
2022/08/21 12:17:37;;;;;;;5.72;1.63;;;;;;;;;;5070243;28;20215;-77
2022/08/21 12:20:19;;;;;;;3.35;1.23;;;;;;;;;;5064579;28;20250;-77
2022/08/21 12:22:53;;;;;;;5.45;1.33;;;;;;;;;;5065308;28;20207;-77
2022/08/21 12:25:21;;;;;;;5.07;1.50;;;;;;;;;;5065424;28;20214;-77
2022/08/21 12:27:51;;;;;;;3.75;1.30;;;;;;;;;;5061332;28;20290;-77
2022/08/21 12:30:23;;;;;;;4.43;1.70;;;;;;;;;;5072440;28;20290;-76
2022/08/21 12:32:56;;;;;;;4.93;1.60;;;;;;;;;;5069625;28;20208;-78
2022/08/21 12:35:26;;;;;;;4.43;1.65;;;;;;;;;;5059657;28;20248;-78
2022/08/21 12:37:57;;;;;;;4.55;1.38;;;;;;;;;;5061813;28;20257;-78
2022/08/21 12:40:26;;;;;;;4.05;1.70;;;;;;;;;;5073709;28;20238;-77
2022/08/21 12:42:56;;;;;;;5.43;2.00;;;;;;;;;;5059626;28;20231;-77
2022/08/21 12:45:27;;;;;;;6.75;1.90;;;;;;;;;;5057118;28;20275;-77
2022/08/21 12:47:57;;;;;;;5.47;2.10;;;;;;;;;;5062385;28;20277;-76
2022/08/21 12:50:28;;;;;;;6.07;2.20;;;;;;;;;;5039039;28;20224;-77
2022/08/21 12:52:58;;;;;;;7.00;2.17;;;;;;;;;;5055748;28;20675;-78
2022/08/21 12:55:29;;;;;;;6.78;1.80;;;;;;;;;;5066876;28;20241;-77
2022/08/21 12:57:58;;;;;;;6.35;1.70;;;;;;;;;;5067102;28;20227;-77
2022/08/21 13:00:26;;;;;;;4.65;1.60;;;;;;;;;;5063736;28;20224;-77
2022/08/21 13:02:54;;;;;;;5.32;2.00;;;;;;;;;;5063456;28;20283;-75
2022/08/21 13:05:25;;;;;;;6.40;1.83;;;;;;;;;;5063318;28;20222;-75
2022/08/21 13:07:53;;;;;;;5.75;2.22;;;;;;;;;;5060645;28;20235;-75
2022/08/21 13:10:21;;;;;;;4.22;1.83;;;;;;;;;;5061375;28;20651;-75
2022/08/21 13:12:49;;;;;;;4.80;1.70;;;;;;;;;;5057536;28;20199;-75
2022/08/21 13:15:24;;;;;;;4.28;1.70;;;;;;;;;;5054729;28;20286;-75
2022/08/21 13:17:52;;;;;;;3.47;1.50;;;;;;;;;;5052737;28;20226;-73
2022/08/21 13:20:23;;;;;;;6.30;2.10;;;;;;;;;;5061362;28;20285;-73
2022/08/21 13:22:50;;;;;;;4.88;1.90;;;;;;;;;;5061528;28;20213;-73
2022/08/21 13:25:18;;;;;;;6.15;2.17;;;;;;;;;;5056815;28;20290;-74
2022/08/21 13:27:57;;;;;;;5.32;1.90;;;;;;;;;;5058413;28;20654;-73
2022/08/21 13:30:26;;;;;;;4.15;1.83;;;;;;;;;;5065586;28;20288;-74
2022/08/21 13:32:57;;;;;;;6.60;2.08;;;;;;;;;;5059938;28;20223;-74
2022/08/21 13:35:26;;;;;;;4.38;1.55;;;;;;;;;;5067361;28;20243;-73
2022/08/21 13:37:54;;;;;;;3.30;1.50;;;;;;;;;;5059234;28;20309;-73
2022/08/21 13:40:25;;;;;;;4.05;1.80;;;;;;;;;;5053566;28;20251;-76
2022/08/21 13:42:52;;;;;;;3.47;1.30;;;;;;;;;;5057337;28;20282;-76
2022/08/21 13:45:24;;;;;;;2.17;1.17;;;;;;;;;;5053376;28;20235;-77
2022/08/21 13:47:53;;;;;;;3.40;1.35;;;;;;;;;;5053656;28;20228;-76
2022/08/21 13:50:22;;;;;;;4.38;1.48;;;;;;;;;;5068781;28;20226;-76
2022/08/21 13:52:55;;;;;;;2.83;1.40;;;;;;;;;;5071799;28;20230;-76
2022/08/21 13:55:22;;;;;;;1.85;1.00;;;;;;;;;;5047673;28;20264;-76
2022/08/21 13:57:59;;;;;;;2.35;1.20;;;;;;;;;;5064880;28;20744;-76
2022/08/21 14:00:28;;;;;;;2.15;1.05;;;;;;;;;;5064701;28;20315;-76
2022/08/21 14:03:02;;;;;;;1.85;1.10;;;;;;;;;;5057148;28;20224;-76
2022/08/21 14:05:32;;;;;;;1.52;1.08;;;;;;;;;;5060413;28;20287;-76
2022/08/21 14:08:03;;;;;;;2.42;0.90;;;;;;;;;;5057964;28;20239;-76
2022/08/21 14:10:30;;;;;;;2.15;0.90;;;;;;;;;;5062904;28;20297;-76
2022/08/21 14:13:00;;;;;;;1.83;1.00;;;;;;;;;;5065102;28;20655;-76
2022/08/21 14:15:29;;;;;;;2.25;1.13;;;;;;;;;;5065627;28;20291;-76
2022/08/21 14:18:09;;;;;;;2.03;1.30;;;;;;;;;;5063158;28;20227;-76
2022/08/21 14:20:37;;;;;;;2.15;1.30;;;;;;;;;;5057406;28;20239;-76
2022/08/21 14:23:04;;;;;;;1.88;1.27;;;;;;;;;;5053288;28;20282;-76
2022/08/21 14:25:38;;;;;;;2.97;1.45;;;;;;;;;;5059798;28;20206;-75
2022/08/21 14:28:11;;;;;;;2.83;1.48;;;;;;;;;;5058913;28;20305;-75
2022/08/21 14:30:40;;;;;;;2.08;1.33;;;;;;;;;;5056471;28;20200;-76
2022/08/21 14:33:11;;;;;;;2.47;1.40;;;;;;;;;;5060389;28;20234;-76
2022/08/21 14:35:39;;;;;;;1.83;1.00;;;;;;;;;;5063442;28;20765;-77
2022/08/21 14:38:13;;;;;;;1.45;1.15;;;;;;;;;;5055170;28;20269;-76
2022/08/21 14:40:40;;;;;;;1.92;1.10;;;;;;;;;;5068004;28;20284;-76
2022/08/21 14:43:07;;;;;;;2.28;1.30;;;;;;;;;;5069153;28;20195;-76
2022/08/21 14:45:36;;;;;;;3.85;1.25;;;;;;;;;;5058405;28;20206;-76
2022/08/21 14:48:04;;;;;;;2.35;1.30;;;;;;;;;;5061340;28;20586;-75
2022/08/21 14:50:32;;;;;;;2.40;1.40;;;;;;;;;;5056249;28;20200;-75